Cehov, Russia
Current Conditions -  °F | °C
As of 9:30 AM on Wednesday 22 Oct 2014 (Local Time) from UUMO Reporting Station
Light Snow Light Snow  
Wind Chill: 11°   Ceiling: 2000
Heat Index: 23°   Visibility: 6mi
Dew Point: 14°   Wind: 13mph
Humidity: 68%   Direction: 350°N
Pressure: 29.85"   Gusts: NA
Location:  55.15°N, 37.48°E
Report Text: UUMO 220630Z 35006MPS 9999 -SN OVC020 M05/M10 Q1011 NOSIG RMKQFE743/0990 26910245
Loading
Personal Weather Stations






























Interactive Weather Map
Tropical Storm Tracking
New forecast layout! Learn more

10-Day Weather Forecast

Advertisements
Track Severe Weather on mobile